Time;durP1;ratioP1;P1;durP2;ratioP2;P2;SDS_P1;SDS_P2;PMS_P1;PMS_P2;Temp;Humidity;BMP_temperature;BMP_pressure;BME280_temperature;BME280_humidity;BME280_pressure;Samples;Min_cycle;Max_cycle;Signal;HPM_P1;HPM_P2
2023/07/16 00:00:11;;;;;;;3.67;2.58;;;16.60;99.90;;;;;;5092742;28;20048;-83
2023/07/16 00:02:38;;;;;;;5.70;2.53;;;16.60;99.90;;;;;;5075546;28;20043;-84
2023/07/16 00:05:04;;;;;;;6.38;2.67;;;16.60;99.90;;;;;;5094748;28;20522;-83
2023/07/16 00:07:29;;;;;;;5.10;2.70;;;16.50;99.90;;;;;;5080372;28;20070;-83
2023/07/16 00:09:55;;;;;;;6.30;2.90;;;16.50;99.90;;;;;;5087218;28;20040;-84
2023/07/16 00:12:21;;;;;;;6.15;2.60;;;16.80;99.90;;;;;;5070589;28;20071;-84
2023/07/16 00:14:48;;;;;;;5.88;2.83;;;16.50;99.90;;;;;;5098072;28;20070;-83
2023/07/16 00:17:13;;;;;;;5.47;2.60;;;16.50;99.90;;;;;;5100395;28;20040;-84
2023/07/16 00:19:39;;;;;;;6.80;3.00;;;16.40;99.90;;;;;;5092144;28;20051;-83
2023/07/16 00:22:05;;;;;;;5.13;2.72;;;16.40;99.90;;;;;;5097416;28;20278;-83
2023/07/16 00:24:30;;;;;;;5.95;2.90;;;16.40;99.90;;;;;;5096238;28;20108;-84
2023/07/16 00:26:56;;;;;;;4.63;2.60;;;16.40;99.90;;;;;;5097314;28;20071;-86
2023/07/16 00:29:22;;;;;;;6.60;2.85;;;16.40;99.90;;;;;;5076476;28;20123;-85
2023/07/16 00:31:48;;;;;;;5.38;3.13;;;16.70;99.90;;;;;;5099503;28;20122;-84
2023/07/16 00:34:13;;;;;;;3.70;2.30;;;16.90;99.90;;;;;;5101359;28;20051;-83
2023/07/16 00:36:39;;;;;;;7.45;2.42;;;16.40;99.90;;;;;;5076838;28;20043;-84
2023/07/16 00:39:05;;;;;;;6.97;2.58;;;16.50;99.90;;;;;;5095296;28;20048;-85
2023/07/16 00:41:31;;;;;;;7.40;2.72;;;16.40;99.90;;;;;;5091035;28;20056;-85
2023/07/16 00:43:56;;;;;;;9.45;2.65;;;16.40;99.90;;;;;;5075303;28;20044;-85
2023/07/16 00:46:23;;;;;;;5.05;2.70;;;16.40;99.90;;;;;;5089765;28;20039;-85
2023/07/16 00:48:49;;;;;;;7.35;2.67;;;16.30;99.90;;;;;;5097457;28;20048;-84
2023/07/16 00:51:14;;;;;;;7.10;2.40;;;16.30;99.90;;;;;;5071211;28;20056;-85
2023/07/16 00:53:42;;;;;;;8.80;2.58;;;16.40;99.90;;;;;;5093842;28;20425;-83
2023/07/16 00:56:08;;;;;;;8.90;2.45;;;16.80;99.90;;;;;;5091504;28;20080;-85
2023/07/16 00:58:34;;;;;;;7.97;2.70;;;16.20;99.90;;;;;;5074273;28;20036;-83
2023/07/16 01:01:00;;;;;;;5.93;2.60;;;16.20;99.90;;;;;;5095583;28;20048;-84
2023/07/16 01:03:26;;;;;;;9.02;3.17;;;16.20;99.90;;;;;;5102120;28;20114;-83
2023/07/16 01:06:13;;;;;;;7.28;2.58;;;16.10;99.90;;;;;;5092117;28;20044;-83
2023/07/16 01:08:42;;;;;;;7.65;2.70;;;16.20;99.90;;;;;;5096750;28;20038;-85
2023/07/16 01:11:09;;;;;;;8.82;2.92;;;16.60;99.90;;;;;;5072228;28;20044;-84
2023/07/16 01:13:35;;;;;;;5.70;2.78;;;16.10;99.90;;;;;;5094998;28;20151;-84
2023/07/16 01:16:02;;;;;;;6.72;2.67;;;16.00;99.90;;;;;;5098659;28;20058;-83
2023/07/16 01:18:27;;;;;;;7.25;2.80;;;16.50;99.90;;;;;;5088870;28;20052;-84
2023/07/16 01:20:53;;;;;;;6.68;2.90;;;16.00;99.90;;;;;;5097291;28;20390;-83
2023/07/16 01:23:46;;;;;;;3.83;2.40;;;16.00;99.90;;;;;;5101861;28;20043;-83
2023/07/16 01:26:18;;;;;;;7.45;3.30;;;16.00;99.90;;;;;;5100252;28;20508;-85
2023/07/16 01:29:14;;;;;;;7.45;3.25;;;15.80;99.90;;;;;;5075313;28;20036;-84
2023/07/16 01:31:41;;;;;;;6.53;3.10;;;15.90;99.90;;;;;;5091285;28;20139;-83
2023/07/16 01:34:08;;;;;;;5.55;3.05;;;15.90;99.90;;;;;;5095686;28;20051;-85
2023/07/16 01:36:36;;;;;;;7.65;2.90;;;15.90;99.90;;;;;;5068390;28;20047;-86
2023/07/16 01:39:02;;;;;;;7.95;2.90;;;15.90;99.90;;;;;;5075024;28;20035;-85
2023/07/16 01:41:27;;;;;;;6.40;2.95;;;16.00;99.90;;;;;;5086085;28;20048;-85
2023/07/16 01:43:53;;;;;;;8.85;3.70;;;16.10;99.90;;;;;;5086514;28;20036;-83
2023/07/16 01:46:18;;;;;;;7.38;2.90;;;16.10;99.90;;;;;;5104350;27;20046;-86
2023/07/16 01:48:44;;;;;;;6.10;3.00;;;16.20;99.90;;;;;;5099884;28;20052;-85
2023/07/16 01:51:13;;;;;;;5.95;3.30;;;16.20;99.90;;;;;;5071340;28;20469;-86
2023/07/16 01:53:39;;;;;;;7.40;3.25;;;16.20;99.90;;;;;;5053053;28;20134;-88
2023/07/16 01:56:05;;;;;;;7.28;3.60;;;16.30;99.90;;;;;;5059647;28;20090;-88
2023/07/16 01:58:31;;;;;;;8.15;3.53;;;16.30;99.90;;;;;;5053449;28;20040;-86
2023/07/16 02:00:57;;;;;;;9.23;3.40;;;16.30;99.90;;;;;;5058228;28;20083;-88
2023/07/16 02:03:22;;;;;;;4.68;3.33;;;16.30;99.90;;;;;;5081689;28;20130;-86
2023/07/16 02:05:48;;;;;;;5.90;3.20;;;16.30;99.90;;;;;;5073722;28;20130;-86
2023/07/16 02:08:14;;;;;;;8.63;3.67;;;16.30;99.90;;;;;;5076562;28;20040;-85
2023/07/16 02:10:39;;;;;;;7.22;3.45;;;16.40;99.90;;;;;;5080881;28;20508;-87
2023/07/16 02:13:05;;;;;;;7.15;3.45;;;16.60;99.90;;;;;;5063843;28;20063;-86
2023/07/16 02:15:30;;;;;;;7.40;3.95;;;16.40;99.90;;;;;;5052953;28;20059;-85
2023/07/16 02:17:56;;;;;;;9.93;4.10;;;16.40;99.90;;;;;;5076647;28;20043;-87
2023/07/16 02:20:22;;;;;;;7.38;3.40;;;16.40;99.90;;;;;;5056542;28;20084;-87
2023/07/16 02:22:48;;;;;;;8.65;3.80;;;16.40;99.90;;;;;;5052690;28;20091;-87
2023/07/16 02:25:13;;;;;;;7.22;3.53;;;16.70;99.90;;;;;;5050141;28;20044;-85
2023/07/16 02:27:39;;;;;;;7.93;3.50;;;16.30;99.90;;;;;;5058640;28;20048;-87
2023/07/16 02:30:06;;;;;;;6.18;3.13;;;16.40;99.90;;;;;;5054912;28;20839;-84
2023/07/16 02:32:32;;;;;;;6.65;3.42;;;16.30;99.90;;;;;;5054203;28;20052;-85
2023/07/16 02:34:58;;;;;;;5.95;3.40;;;16.30;99.90;;;;;;5075287;28;20836;-87
2023/07/16 02:37:23;;;;;;;9.43;3.80;;;16.30;99.90;;;;;;5067038;28;20047;-84
2023/07/16 02:39:49;;;;;;;7.05;3.25;;;16.40;99.90;;;;;;5057443;28;20117;-84
2023/07/16 02:42:15;;;;;;;6.72;3.50;;;16.30;99.90;;;;;;5070247;28;20040;-83
2023/07/16 02:44:44;;;;;;;7.15;4.00;;;16.30;99.90;;;;;;5053080;28;20040;-84
2023/07/16 02:47:11;;;;;;;6.38;3.35;;;16.30;99.90;;;;;;5057183;28;20040;-86
2023/07/16 02:49:37;;;;;;;8.45;3.45;;;16.20;99.90;;;;;;5059326;28;20129;-83
2023/07/16 02:52:03;;;;;;;6.13;3.50;;;16.20;99.90;;;;;;5070146;28;20067;-86
2023/07/16 02:54:28;;;;;;;7.93;3.63;;;16.20;99.90;;;;;;5056701;28;20230;-84
2023/07/16 02:56:54;;;;;;;6.13;3.50;;;16.10;99.90;;;;;;5065810;28;20037;-85
2023/07/16 02:59:22;;;;;;;6.45;3.15;;;16.10;99.90;;;;;;5064756;28;20111;-84
2023/07/16 03:01:47;;;;;;;7.03;3.33;;;16.10;99.90;;;;;;5077019;28;20085;-83
2023/07/16 03:04:13;;;;;;;7.03;3.70;;;16.10;99.90;;;;;;5075621;28;20477;-85
2023/07/16 03:06:38;;;;;;;8.18;3.95;;;16.00;99.90;;;;;;5051712;28;20040;-87
2023/07/16 03:09:07;;;;;;;9.52;3.65;;;15.80;99.90;;;;;;5059633;28;20041;-87
2023/07/16 03:11:33;;;;;;;7.57;3.58;;;16.00;99.90;;;;;;5054827;28;20047;-84
2023/07/16 03:13:58;;;;;;;5.88;3.42;;;16.10;99.90;;;;;;5069563;28;20048;-87
2023/07/16 03:16:24;;;;;;;6.32;3.70;;;16.00;99.90;;;;;;5076829;28;20048;-83
2023/07/16 03:18:49;;;;;;;9.20;4.22;;;16.00;99.90;;;;;;5077150;28;20062;-86
2023/07/16 03:21:15;;;;;;;6.68;3.67;;;16.00;99.90;;;;;;5052498;28;20437;-84
2023/07/16 03:23:41;;;;;;;9.20;4.20;;;16.00;99.90;;;;;;5051145;28;20044;-86
2023/07/16 03:26:06;;;;;;;10.82;4.28;;;15.70;99.90;;;;;;5078742;28;20379;-85
2023/07/16 03:28:32;;;;;;;10.43;4.40;;;16.00;99.90;;;;;;5081526;28;20047;-87
2023/07/16 03:30:57;;;;;;;8.88;4.28;;;16.30;99.90;;;;;;5077172;28;20104;-84
2023/07/16 03:33:23;;;;;;;7.78;3.97;;;16.00;99.90;;;;;;5056637;28;20047;-86
2023/07/16 03:35:49;;;;;;;10.70;4.50;;;16.00;99.90;;;;;;5075259;28;20036;-86
2023/07/16 03:38:15;;;;;;;7.93;3.60;;;16.30;99.90;;;;;;5056147;28;20044;-85
2023/07/16 03:40:46;;;;;;;8.55;4.50;;;16.00;99.90;;;;;;5054318;28;20097;-84
2023/07/16 03:43:12;;;;;;;10.50;4.50;;;16.00;99.90;;;;;;5062138;28;20184;-86
2023/07/16 03:45:37;;;;;;;6.95;4.03;;;16.00;99.90;;;;;;5058195;28;20072;-86
2023/07/16 03:48:03;;;;;;;8.15;4.40;;;16.00;99.90;;;;;;5070508;28;20049;-85
2023/07/16 03:50:29;;;;;;;8.57;4.00;;;16.00;99.90;;;;;;5055003;28;20675;-86
2023/07/16 03:52:55;;;;;;;9.07;4.15;;;16.00;99.90;;;;;;5087387;28;20088;-85
2023/07/16 03:55:23;;;;;;;9.93;3.97;;;16.00;99.90;;;;;;5071828;28;20036;-87
2023/07/16 03:57:48;;;;;;;7.53;4.05;;;16.00;99.90;;;;;;5072908;28;20433;-84
2023/07/16 04:00:14;;;;;;;10.65;4.20;;;15.90;99.90;;;;;;5096235;28;20035;-84
2023/07/16 04:02:40;;;;;;;6.55;4.05;;;16.00;99.90;;;;;;5087882;28;20409;-84
2023/07/16 04:05:06;;;;;;;8.68;4.38;;;16.00;99.90;;;;;;5090586;28;21624;-84
2023/07/16 04:07:32;;;;;;;9.05;4.50;;;16.00;99.90;;;;;;5098591;28;20052;-87
2023/07/16 04:09:57;;;;;;;8.07;4.22;;;16.00;99.90;;;;;;5094372;28;20031;-85
2023/07/16 04:12:23;;;;;;;7.90;4.07;;;16.00;99.90;;;;;;5082466;28;20039;-85
2023/07/16 04:14:48;;;;;;;9.52;4.22;;;16.00;99.90;;;;;;5102712;28;20699;-86
2023/07/16 04:17:14;;;;;;;7.47;4.00;;;16.00;99.90;;;;;;5074731;28;20071;-84
2023/07/16 04:19:39;;;;;;;12.95;4.40;;;16.00;99.90;;;;;;5090466;28;20048;-85
2023/07/16 04:22:05;;;;;;;6.75;4.05;;;16.00;99.90;;;;;;5073685;28;20123;-84
2023/07/16 04:24:31;;;;;;;10.07;4.00;;;16.10;99.90;;;;;;5099429;28;20051;-85
2023/07/16 04:26:58;;;;;;;8.93;4.32;;;16.40;99.90;;;;;;5098599;28;20505;-84
2023/07/16 04:29:24;;;;;;;6.32;4.00;;;16.10;99.90;;;;;;5095299;28;20036;-85
2023/07/16 04:31:49;;;;;;;9.27;4.82;;;16.60;99.90;;;;;;5091837;28;20177;-82
2023/07/16 04:34:15;;;;;;;8.07;4.75;;;16.10;99.90;;;;;;5088822;28;20047;-84
2023/07/16 04:36:42;;;;;;;9.05;4.05;;;16.10;99.90;;;;;;5078377;28;20047;-85
2023/07/16 04:39:07;;;;;;;8.05;4.10;;;16.10;99.90;;;;;;5069703;28;20040;-84
2023/07/16 04:41:33;;;;;;;6.68;4.03;;;16.00;99.90;;;;;;5093405;28;20095;-84
2023/07/16 04:43:59;;;;;;;8.30;4.82;;;16.40;99.90;;;;;;5075453;28;20056;-84
2023/07/16 04:46:24;;;;;;;10.50;4.45;;;16.10;99.90;;;;;;5093799;28;20048;-84
2023/07/16 04:48:50;;;;;;;9.38;4.10;;;16.20;99.90;;;;;;5073976;28;20076;-83
2023/07/16 04:51:15;;;;;;;9.05;3.60;;;16.40;99.90;;;;;;5099678;28;20717;-84
2023/07/16 04:53:41;;;;;;;7.63;3.78;;;16.20;99.90;;;;;;5094626;28;20073;-86
2023/07/16 04:56:13;;;;;;;7.95;4.32;;;16.20;99.90;;;;;;5069836;28;20117;-84
2023/07/16 04:58:39;;;;;;;8.07;3.92;;;16.40;99.90;;;;;;5101573;28;20127;-85
2023/07/16 05:01:05;;;;;;;9.38;4.05;;;16.30;99.90;;;;;;5095920;28;20148;-83
2023/07/16 05:03:30;;;;;;;6.85;3.50;;;16.40;99.90;;;;;;5104991;28;20048;-85
2023/07/16 05:05:56;;;;;;;8.57;4.07;;;16.40;99.90;;;;;;5091771;28;20071;-86
2023/07/16 05:08:21;;;;;;;6.78;4.47;;;16.40;99.90;;;;;;5090758;28;20042;-83
2023/07/16 05:10:47;;;;;;;10.75;3.95;;;16.50;99.90;;;;;;5092699;28;20048;-85
2023/07/16 05:13:13;;;;;;;8.27;3.88;;;16.70;99.90;;;;;;5073643;28;20048;-84
2023/07/16 05:15:38;;;;;;;9.52;3.90;;;16.60;99.90;;;;;;5077503;28;20093;-84
2023/07/16 05:18:04;;;;;;;8.77;3.47;;;16.60;99.90;;;;;;5091728;28;20143;-83
2023/07/16 05:20:30;;;;;;;10.48;4.07;;;16.90;99.90;;;;;;5073643;28;20048;-84
2023/07/16 05:22:55;;;;;;;8.80;3.80;;;16.70;99.90;;;;;;5090869;28;20085;-86
2023/07/16 05:25:21;;;;;;;7.45;3.65;;;16.80;99.90;;;;;;5078410;28;20436;-88
2023/07/16 05:27:46;;;;;;;7.93;3.50;;;16.80;99.90;;;;;;5095143;28;20068;-87
2023/07/16 05:30:12;;;;;;;9.48;4.25;;;16.80;99.90;;;;;;5092400;28;20131;-85
2023/07/16 05:32:38;;;;;;;6.45;3.80;;;16.90;99.90;;;;;;5091932;28;20484;-85
2023/07/16 05:35:05;;;;;;;6.60;3.78;;;17.00;99.90;;;;;;5095077;28;20494;-86
2023/07/16 05:37:30;;;;;;;6.60;3.58;;;17.00;99.90;;;;;;5095513;28;20036;-86
2023/07/16 05:39:56;;;;;;;9.00;3.83;;;17.40;99.90;;;;;;5102598;28;20390;-88
2023/07/16 05:42:21;;;;;;;9.93;4.20;;;18.00;99.90;;;;;;5094083;28;20040;-87
2023/07/16 05:44:48;;;;;;;8.75;3.90;;;18.40;99.90;;;;;;5087209;28;20075;-87
2023/07/16 05:47:13;;;;;;;5.28;3.20;;;19.30;99.90;;;;;;5100659;28;20043;-86
2023/07/16 05:49:39;;;;;;;7.45;3.42;;;20.20;99.90;;;;;;5096255;28;20108;-85
2023/07/16 05:52:05;;;;;;;6.97;3.65;;;20.80;99.90;;;;;;5076426;28;20043;-86
2023/07/16 05:54:31;;;;;;;9.02;3.53;;;21.30;99.90;;;;;;5092352;28;20087;-86
2023/07/16 05:56:57;;;;;;;7.60;3.88;;;21.60;99.90;;;;;;5095593;28;20039;-87
2023/07/16 05:59:23;;;;;;;7.53;3.22;;;21.90;99.90;;;;;;5092477;28;20040;-85
2023/07/16 06:01:48;;;;;;;5.65;3.45;;;21.90;99.90;;;;;;5103304;28;20040;-87
2023/07/16 06:04:14;;;;;;;10.88;3.40;;;22.40;99.90;;;;;;5104169;27;20040;-86
2023/07/16 06:06:39;;;;;;;9.90;4.25;;;22.60;99.90;;;;;;5099675;28;20043;-86
2023/07/16 06:09:05;;;;;;;8.13;3.90;;;22.50;99.80;;;;;;5095287;28;20047;-86
2023/07/16 06:11:30;;;;;;;7.32;4.07;;;22.80;99.30;;;;;;5088113;28;20043;-85
2023/07/16 06:13:56;;;;;;;8.07;3.67;;;22.50;98.90;;;;;;5104336;28;20043;-85
2023/07/16 06:16:22;;;;;;;5.70;3.88;;;22.80;98.50;;;;;;5091283;28;20124;-87
2023/07/16 06:18:47;;;;;;;6.57;3.78;;;22.80;98.20;;;;;;5086494;28;20079;-84
2023/07/16 06:21:13;;;;;;;8.23;4.03;;;22.90;97.70;;;;;;5088479;28;20062;-85
2023/07/16 06:23:38;;;;;;;7.85;3.97;;;23.00;97.20;;;;;;5087081;28;20127;-87
2023/07/16 06:26:04;;;;;;;5.32;3.70;;;23.10;96.20;;;;;;5087512;28;20043;-87
2023/07/16 06:28:30;;;;;;;7.35;3.88;;;23.10;95.80;;;;;;5077438;28;20044;-84
2023/07/16 06:30:56;;;;;;;6.00;3.65;;;23.30;95.40;;;;;;5092704;28;20116;-86
2023/07/16 06:33:21;;;;;;;7.68;4.35;;;23.40;95.20;;;;;;5071108;28;20133;-83
2023/07/16 06:35:47;;;;;;;7.07;3.53;;;23.50;94.80;;;;;;5098509;28;20040;-84
2023/07/16 06:38:15;;;;;;;7.18;3.85;;;23.50;94.40;;;;;;5091539;28;20048;-86
2023/07/16 06:40:47;;;;;;;8.90;4.03;;;22.80;94.50;;;;;;5101804;28;20057;-85
2023/07/16 06:43:13;;;;;;;7.43;3.72;;;22.30;93.30;;;;;;5087317;28;20044;-86
2023/07/16 06:45:38;;;;;;;7.63;4.05;;;21.20;97.10;;;;;;5078170;28;20046;-84
2023/07/16 06:48:05;;;;;;;6.18;3.80;;;21.00;98.20;;;;;;5100397;28;20521;-83
2023/07/16 06:50:30;;;;;;;9.80;4.45;;;20.50;99.20;;;;;;5087255;28;20119;-83
2023/07/16 06:52:56;;;;;;;6.85;4.10;;;20.60;99.90;;;;;;5083186;28;20573;-85
2023/07/16 06:55:21;;;;;;;7.13;4.25;;;20.20;99.90;;;;;;5091277;28;20382;-85
2023/07/16 06:57:47;;;;;;;7.55;3.85;;;20.10;99.90;;;;;;5090706;28;20153;-86
2023/07/16 07:00:13;;;;;;;8.98;4.20;;;20.10;99.90;;;;;;5087490;28;20634;-84
2023/07/16 07:02:38;;;;;;;7.57;3.88;;;20.20;99.90;;;;;;5100355;28;20073;-85
2023/07/16 07:05:04;;;;;;;6.65;3.65;;;20.30;99.90;;;;;;5087653;28;20044;-84
2023/07/16 07:07:30;;;;;;;6.40;3.90;;;20.30;99.90;;;;;;5082203;28;20075;-84
2023/07/16 07:09:55;;;;;;;7.60;3.88;;;20.50;99.90;;;;;;5087146;28;20047;-83
2023/07/16 07:12:21;;;;;;;8.88;4.22;;;20.40;99.90;;;;;;5096068;28;20067;-84
2023/07/16 07:14:47;;;;;;;6.38;4.30;;;20.40;99.90;;;;;;5105378;28;20059;-83
2023/07/16 07:17:13;;;;;;;6.72;3.83;;;20.50;99.90;;;;;;5099035;28;20594;-83
2023/07/16 07:19:39;;;;;;;5.72;3.78;;;20.50;99.90;;;;;;5097334;28;20070;-84
2023/07/16 07:22:05;;;;;;;6.95;4.40;;;20.50;99.90;;;;;;5105574;28;20039;-84
2023/07/16 07:24:30;;;;;;;6.28;4.05;;;20.70;99.90;;;;;;5102950;28;20052;-85
2023/07/16 07:26:56;;;;;;;7.82;4.57;;;20.70;99.90;;;;;;5088211;28;20044;-84
2023/07/16 07:29:21;;;;;;;6.40;4.10;;;20.80;99.90;;;;;;5088901;28;20873;-86
2023/07/16 07:31:47;;;;;;;5.47;3.83;;;20.80;99.90;;;;;;5077020;28;20040;-86
2023/07/16 07:34:13;;;;;;;9.30;4.43;;;20.90;99.90;;;;;;5097222;28;20700;-85
2023/07/16 07:36:38;;;;;;;8.52;4.18;;;21.00;99.90;;;;;;5088521;28;20132;-84
2023/07/16 07:39:04;;;;;;;5.60;3.80;;;20.90;99.70;;;;;;5071550;28;20039;-83
2023/07/16 07:41:29;;;;;;;7.25;3.92;;;21.40;99.90;;;;;;5089677;28;20032;-85
2023/07/16 07:43:55;;;;;;;8.00;4.18;;;21.10;99.60;;;;;;5073243;28;20123;-85
2023/07/16 07:46:20;;;;;;;7.93;3.88;;;21.10;98.90;;;;;;5091330;28;20409;-84
2023/07/16 07:48:46;;;;;;;7.43;4.28;;;21.60;99.00;;;;;;5090226;28;20048;-85
2023/07/16 07:51:12;;;;;;;7.22;4.13;;;21.40;99.20;;;;;;5097357;28;20047;-83
2023/07/16 07:53:38;;;;;;;7.88;4.28;;;21.50;99.00;;;;;;5096285;28;20071;-84
2023/07/16 07:56:04;;;;;;;7.38;3.95;;;21.90;98.80;;;;;;5080254;28;20078;-86
2023/07/16 07:58:29;;;;;;;6.60;3.97;;;22.10;98.70;;;;;;5100495;28;20502;-83
2023/07/16 08:00:55;;;;;;;7.20;3.90;;;21.80;98.20;;;;;;5094726;28;20402;-84
2023/07/16 08:03:20;;;;;;;6.13;3.83;;;21.60;97.50;;;;;;5089719;28;20141;-84
2023/07/16 08:05:49;;;;;;;6.53;3.83;;;21.70;97.10;;;;;;5088873;28;20055;-84
2023/07/16 08:08:15;;;;;;;6.68;3.75;;;21.30;97.20;;;;;;5104899;28;20043;-85
2023/07/16 08:10:41;;;;;;;6.18;3.80;;;21.10;97.50;;;;;;5099862;28;20663;-85
2023/07/16 08:13:07;;;;;;;7.13;4.05;;;21.20;97.40;;;;;;5100876;28;20040;-85
2023/07/16 08:15:33;;;;;;;12.43;4.18;;;21.20;97.20;;;;;;5072331;28;20101;-85
2023/07/16 08:17:59;;;;;;;7.15;4.32;;;21.20;97.40;;;;;;5094993;28;20070;-85
2023/07/16 08:20:26;;;;;;;9.63;4.10;;;21.30;97.90;;;;;;5095289;28;20075;-88
2023/07/16 08:22:51;;;;;;;7.95;4.15;;;21.20;97.30;;;;;;5090349;28;20797;-87
2023/07/16 08:25:17;;;;;;;6.80;3.97;;;21.20;97.00;;;;;;5101276;28;20058;-86
2023/07/16 08:27:46;;;;;;;8.23;4.05;;;21.10;97.20;;;;;;5091913;28;20083;-87
2023/07/16 08:30:12;;;;;;;7.35;3.70;;;20.90;97.10;;;;;;5093255;28;20043;-86
2023/07/16 08:32:37;;;;;;;10.10;4.18;;;20.90;97.10;;;;;;5099687;28;20054;-87
2023/07/16 08:35:03;;;;;;;6.88;4.00;;;20.90;96.70;;;;;;5093813;28;20063;-86
2023/07/16 08:37:29;;;;;;;8.75;4.05;;;20.80;97.00;;;;;;5080515;28;20127;-87
2023/07/16 08:39:54;;;;;;;6.90;3.60;;;21.00;97.60;;;;;;5093130;28;20119;-85
2023/07/16 08:42:20;;;;;;;11.02;4.10;;;20.80;97.70;;;;;;5092246;28;20047;-86
2023/07/16 08:44:49;;;;;;;6.25;4.30;;;20.90;97.10;;;;;;5096409;28;20639;-87
2023/07/16 08:47:15;;;;;;;7.82;4.10;;;20.90;97.00;;;;;;5103022;28;20058;-85
2023/07/16 08:49:41;;;;;;;8.77;4.15;;;21.00;97.50;;;;;;5104879;28;20065;-87
2023/07/16 08:52:09;;;;;;;10.20;4.57;;;21.40;97.60;;;;;;5093869;28;20044;-85
2023/07/16 08:54:34;;;;;;;6.20;4.20;;;21.50;97.70;;;;;;5088909;28;20047;-84
2023/07/16 08:57:01;;;;;;;5.35;4.38;;;21.80;97.60;;;;;;5085407;28;20040;-84
2023/07/16 08:59:27;;;;;;;9.23;3.90;;;21.60;97.40;;;;;;5088820;28;20046;-85
2023/07/16 09:01:53;;;;;;;7.53;4.18;;;21.50;96.30;;;;;;5071292;28;20040;-85
2023/07/16 09:04:19;;;;;;;8.52;4.47;;;22.00;96.20;;;;;;5095002;28;20043;-82
2023/07/16 09:06:44;;;;;;;8.88;4.60;;;21.90;96.40;;;;;;5071615;28;20093;-84
2023/07/16 09:09:21;;;;;;;8.32;4.20;;;22.40;97.10;;;;;;5088943;28;20047;-86
2023/07/16 09:11:48;;;;;;;8.45;4.40;;;22.00;96.70;;;;;;5074305;28;20044;-82
2023/07/16 09:14:19;;;;;;;7.80;4.07;;;22.30;96.50;;;;;;5097691;28;20163;-85
2023/07/16 09:16:49;;;;;;;6.35;3.97;;;22.20;95.80;;;;;;5078476;28;20040;-86
2023/07/16 09:19:17;;;;;;;7.25;4.10;;;22.20;95.20;;;;;;5099971;28;20039;-84
2023/07/16 09:21:43;;;;;;;6.18;3.83;;;22.30;95.30;;;;;;5071655;28;20048;-85
2023/07/16 09:24:09;;;;;;;6.90;3.88;;;22.20;94.70;;;;;;5095272;28;20063;-84
2023/07/16 09:26:38;;;;;;;7.85;4.30;;;22.00;95.10;;;;;;5087722;28;20069;-85
2023/07/16 09:29:07;;;;;;;8.80;4.63;;;22.30;94.90;;;;;;5099239;28;20553;-85
2023/07/16 09:31:33;;;;;;;6.50;4.30;;;21.70;95.10;;;;;;5103704;28;20050;-84
2023/07/16 09:33:59;;;;;;;5.30;3.63;;;21.80;95.70;;;;;;5096945;28;20111;-85
2023/07/16 09:36:25;;;;;;;7.30;4.45;;;21.80;95.60;;;;;;5077826;28;20474;-84
2023/07/16 09:38:53;;;;;;;6.50;4.15;;;21.80;95.40;;;;;;5104613;28;20046;-82
2023/07/16 09:41:20;;;;;;;7.13;4.40;;;21.60;95.70;;;;;;5094079;28;20126;-84
2023/07/16 09:43:46;;;;;;;4.72;3.53;;;21.30;96.00;;;;;;5093937;28;20470;-86
2023/07/16 09:46:14;;;;;;;6.32;3.78;;;21.70;96.30;;;;;;5071637;28;20039;-85
2023/07/16 09:48:40;;;;;;;8.13;3.95;;;21.30;96.10;;;;;;5089667;28;20395;-86
2023/07/16 09:51:12;;;;;;;8.15;3.78;;;21.10;96.50;;;;;;5102513;28;20070;-85
2023/07/16 09:53:41;;;;;;;6.35;3.72;;;21.30;96.30;;;;;;5086852;28;20052;-85
2023/07/16 09:56:10;;;;;;;7.15;3.90;;;21.10;96.30;;;;;;5088809;28;20059;-84
2023/07/16 09:58:36;;;;;;;11.57;4.25;;;21.50;96.70;;;;;;5093436;28;20545;-85
2023/07/16 10:01:03;;;;;;;7.43;4.30;;;21.00;96.90;;;;;;5092952;28;20421;-84
2023/07/16 10:03:29;;;;;;;7.47;4.07;;;21.50;97.20;;;;;;5103083;28;20146;-83
2023/07/16 10:06:06;;;;;;;6.90;4.60;;;21.70;97.20;;;;;;5099310;28;20813;-86
2023/07/16 10:08:34;;;;;;;7.70;4.13;;;21.40;96.20;;;;;;5092685;28;20100;-85
2023/07/16 10:11:00;;;;;;;6.57;4.13;;;21.40;96.40;;;;;;5095035;28;20056;-84
2023/07/16 10:13:26;;;;;;;8.00;3.88;;;21.40;96.20;;;;;;5099133;28;20189;-85
2023/07/16 10:15:57;;;;;;;6.68;4.40;;;21.60;96.10;;;;;;5090024;28;20155;-84
2023/07/16 10:18:30;;;;;;;11.38;5.07;;;21.50;95.60;;;;;;5099285;28;20066;-84
2023/07/16 10:21:00;;;;;;;8.23;4.25;;;21.40;95.60;;;;;;5098391;28;20044;-83
2023/07/16 10:23:37;;;;;;;6.28;4.00;;;22.00;96.00;;;;;;5096000;28;20435;-83
2023/07/16 10:26:09;;;;;;;8.07;4.38;;;21.70;96.10;;;;;;5096437;28;20436;-83
2023/07/16 10:28:36;;;;;;;7.25;4.50;;;21.70;96.30;;;;;;5101104;28;20104;-84
2023/07/16 10:31:02;;;;;;;6.80;4.30;;;21.60;96.60;;;;;;5093235;28;20054;-83
2023/07/16 10:33:28;;;;;;;8.60;4.25;;;21.50;96.70;;;;;;5095467;28;20153;-82
2023/07/16 10:35:56;;;;;;;8.57;5.13;;;21.20;97.10;;;;;;5095766;28;20410;-84
2023/07/16 10:38:21;;;;;;;8.13;4.90;;;21.50;97.80;;;;;;5110455;27;20109;-84
2023/07/16 10:40:47;;;;;;;8.18;4.38;;;21.00;97.60;;;;;;5094107;28;20087;-86
2023/07/16 10:43:13;;;;;;;9.65;4.85;;;21.00;97.80;;;;;;5098794;28;20050;-84
2023/07/16 10:45:39;;;;;;;7.32;4.60;;;21.10;98.20;;;;;;5103374;28;20043;-85
2023/07/16 10:48:05;;;;;;;8.00;4.68;;;20.80;98.30;;;;;;5099877;28;20441;-86
2023/07/16 10:50:34;;;;;;;8.43;4.95;;;21.00;98.50;;;;;;5073836;28;20050;-86
2023/07/16 10:53:00;;;;;;;5.93;4.25;;;21.20;98.10;;;;;;5102530;28;20774;-85
2023/07/16 10:55:28;;;;;;;6.22;3.97;;;21.30;98.10;;;;;;5084172;28;20051;-84
2023/07/16 10:57:55;;;;;;;6.00;4.13;;;21.70;98.00;;;;;;5109612;28;20036;-82
2023/07/16 11:00:21;;;;;;;10.02;4.60;;;21.80;97.30;;;;;;5077202;28;20075;-82
2023/07/16 11:02:49;;;;;;;5.95;3.67;;;22.00;97.30;;;;;;5099446;28;20560;-83
2023/07/16 11:05:15;;;;;;;11.25;4.65;;;22.20;96.80;;;;;;5096674;28;20092;-82
2023/07/16 11:07:48;;;;;;;9.20;3.90;;;22.40;96.30;;;;;;5098882;28;20047;-84
2023/07/16 11:10:18;;;;;;;5.72;3.78;;;22.70;95.40;;;;;;5093696;28;20045;-86
2023/07/16 11:12:44;;;;;;;5.57;4.10;;;22.50;94.20;;;;;;5092161;28;20074;-85
2023/07/16 11:15:10;;;;;;;5.82;3.88;;;22.60;94.90;;;;;;5101503;28;20089;-85
2023/07/16 11:17:41;;;;;;;5.95;4.40;;;22.50;94.20;;;;;;5080779;28;20120;-87
2023/07/16 11:20:08;;;;;;;6.60;4.35;;;22.50;93.80;;;;;;5100046;28;20036;-84
2023/07/16 11:22:38;;;;;;;8.68;3.90;;;22.50;94.10;;;;;;5097952;28;20061;-85
2023/07/16 11:25:10;;;;;;;9.35;4.18;;;22.50;94.40;;;;;;5099198;28;20553;-83
2023/07/16 11:27:35;;;;;;;;;;;22.60;94.40;;;;;;5097715;28;20069;-84
2023/07/16 11:30:02;;;;;;;6.72;4.82;;;22.30;93.20;;;;;;5101285;28;19920;-82
2023/07/16 11:32:33;;;;;;;7.70;4.20;;;22.20;95.20;;;;;;5076824;28;20044;-83
2023/07/16 11:35:00;;;;;;;7.97;4.20;;;22.10;95.30;;;;;;5104992;28;20070;-83
2023/07/16 11:37:27;;;;;;;6.65;3.95;;;22.10;95.70;;;;;;5094263;28;20044;-84
2023/07/16 11:40:02;;;;;;;7.60;4.60;;;22.00;95.00;;;;;;5098889;28;20048;-85
2023/07/16 11:42:29;;;;;;;9.35;4.50;;;21.70;94.10;;;;;;5077423;28;20054;-83
2023/07/16 11:44:55;;;;;;;8.70;4.55;;;21.60;94.70;;;;;;5074085;28;20475;-83
2023/07/16 11:47:21;;;;;;;6.55;4.30;;;21.90;95.20;;;;;;5083259;28;20035;-83
2023/07/16 11:49:47;;;;;;;6.40;3.90;;;21.70;95.30;;;;;;5091882;28;20047;-83
2023/07/16 11:52:13;;;;;;;5.35;3.83;;;21.30;95.50;;;;;;5108714;28;20047;-83
2023/07/16 11:54:38;;;;;;;10.80;4.50;;;21.10;95.50;;;;;;5082623;28;20453;-82
2023/07/16 11:57:04;;;;;;;4.88;3.75;;;20.90;95.60;;;;;;5102488;28;20043;-82
2023/07/16 11:59:30;;;;;;;7.07;4.50;;;21.00;95.80;;;;;;5100444;28;20447;-82
2023/07/16 12:01:56;;;;;;;8.52;4.28;;;21.10;95.80;;;;;;5092407;28;20381;-82
2023/07/16 12:04:21;;;;;;;6.38;3.83;;;21.60;95.80;;;;;;5102298;28;20040;-80
2023/07/16 12:06:47;;;;;;;4.50;3.40;;;22.00;96.10;;;;;;5096957;28;20433;-81
2023/07/16 12:09:12;;;;;;;7.60;4.43;;;22.30;95.80;;;;;;5096700;28;20078;-83
2023/07/16 12:11:38;;;;;;;5.78;4.07;;;22.40;95.40;;;;;;5095359;28;20052;-81
2023/07/16 12:14:05;;;;;;;7.00;4.28;;;22.80;95.00;;;;;;5097517;28;20153;-83
2023/07/16 12:16:31;;;;;;;5.80;3.85;;;22.60;94.40;;;;;;5101948;28;20456;-82
2023/07/16 12:18:56;;;;;;;5.03;4.05;;;23.10;94.50;;;;;;5084827;28;20046;-83
2023/07/16 12:21:22;;;;;;;6.82;4.05;;;22.50;94.10;;;;;;5092829;28;20074;-83
2023/07/16 12:23:48;;;;;;;6.75;4.22;;;22.50;94.20;;;;;;5099084;28;20450;-82
2023/07/16 12:26:14;;;;;;;6.35;4.28;;;22.30;94.20;;;;;;5091908;28;20042;-82
2023/07/16 12:28:40;;;;;;;6.72;4.72;;;22.20;93.80;;;;;;5108087;28;20044;-81
2023/07/16 12:31:05;;;;;;;5.80;4.25;;;22.00;93.90;;;;;;5097976;28;20040;-81
2023/07/16 12:33:31;;;;;;;6.22;4.03;;;21.80;94.50;;;;;;5093214;28;20054;-82
2023/07/16 12:35:56;;;;;;;7.05;4.40;;;21.50;94.70;;;;;;5098906;28;20044;-82
2023/07/16 12:38:22;;;;;;;7.55;4.57;;;21.40;95.20;;;;;;5096794;28;20176;-81
2023/07/16 12:40:48;;;;;;;6.93;4.45;;;21.10;95.80;;;;;;5087937;28;20080;-82